Time;durP1;ratioP1;P1;durP2;ratioP2;P2;SDS_P1;SDS_P2;PMS_P1;PMS_P2;Temp;Humidity;BMP_temperature;BMP_pressure;BME280_temperature;BME280_humidity;BME280_pressure;Samples;Min_cycle;Max_cycle;Signal;HPM_P1;HPM_P2
2021/05/18 00:00:52;;;;;;;1.05;0.60;;;12.50;87.20;;;;;;10119604;28;20552;-51
2021/05/18 00:05:47;;;;;;;0.95;0.50;;;12.30;87.40;;;;;;10125350;28;20052;-53
2021/05/18 00:15:56;;;;;;;2.05;0.55;;;11.80;88.70;;;;;;10133742;28;20384;-55
2021/05/18 00:20:47;;;;;;;0.40;0.30;;;11.90;88.20;;;;;;10132929;28;20097;-62
2021/05/18 00:25:39;;;;;;;0.95;0.35;;;11.90;88.10;;;;;;10132360;28;20432;-53
2021/05/18 00:30:30;;;;;;;1.67;0.43;;;12.10;87.60;;;;;;10142623;28;20984;-56
2021/05/18 00:35:21;;;;;;;0.30;0.30;;;12.20;87.60;;;;;;10143951;28;21082;-52
2021/05/18 00:40:15;;;;;;;0.47;0.47;;;12.10;87.40;;;;;;10146279;28;20413;-55
2021/05/18 00:45:06;;;;;;;1.30;0.45;;;12.20;87.30;;;;;;10144768;28;20522;-59
2021/05/18 00:49:57;;;;;;;0.47;0.22;;;12.10;87.30;;;;;;10145163;28;20059;-54
2021/05/18 00:55:04;;;;;;;0.30;0.13;;;11.90;87.60;;;;;;10129329;28;20268;-54
2021/05/18 00:59:55;;;;;;;0.47;0.22;;;11.70;87.70;;;;;;10130294;28;20036;-59
2021/05/18 01:04:46;;;;;;;1.17;0.13;;;11.60;88.00;;;;;;10141466;28;20049;-54
2021/05/18 01:09:37;;;;;;;0.65;0.30;;;11.70;87.60;;;;;;10140270;28;20071;-54
2021/05/18 01:14:28;;;;;;;0.52;0.30;;;11.70;87.70;;;;;;10135813;28;20075;-53
2021/05/18 01:19:21;;;;;;;0.38;0.30;;;11.80;87.60;;;;;;10144221;28;20060;-58
2021/05/18 01:24:17;;;;;;;0.35;0.25;;;11.90;87.50;;;;;;10132961;28;20522;-52
2021/05/18 01:29:09;;;;;;;2.00;0.30;;;12.00;87.30;;;;;;10141269;28;20037;-53
2021/05/18 01:34:02;;;;;;;0.40;0.30;;;12.00;87.10;;;;;;10135860;28;20063;-50
2021/05/18 01:43:57;;;;;;;0.73;0.20;;;11.90;87.50;;;;;;10139923;28;21344;-57
2021/05/18 01:49:09;;;;;;;0.82;0.30;;;12.00;87.30;;;;;;10137357;28;20469;-52
2021/05/18 01:54:06;;;;;;;0.55;0.30;;;12.00;87.40;;;;;;10142778;28;20455;-52
2021/05/18 01:59:04;;;;;;;1.85;0.20;;;11.90;87.40;;;;;;10149659;28;20046;-55
2021/05/18 02:03:54;;;;;;;0.80;0.45;;;12.00;87.20;;;;;;10139728;28;20338;-56
2021/05/18 02:08:45;;;;;;;0.28;0.28;;;12.00;87.30;;;;;;10131780;28;20540;-55
2021/05/18 02:13:38;;;;;;;3.17;0.65;;;12.00;87.40;;;;;;10130412;28;20073;-53
2021/05/18 02:18:46;;;;;;;0.50;0.45;;;12.10;87.70;;;;;;10128053;28;20071;-61
2021/05/18 02:28:48;;;;;;;0.63;0.45;;;12.20;87.20;;;;;;10145126;28;20071;-52
2021/05/18 02:33:39;;;;;;;1.45;0.50;;;12.20;87.60;;;;;;10142924;28;20028;-56
2021/05/18 02:38:30;;;;;;;0.98;0.68;;;12.20;87.60;;;;;;10139552;28;20551;-54
2021/05/18 02:43:26;;;;;;;1.20;0.85;;;12.20;87.90;;;;;;10136015;28;20043;-51
2021/05/18 02:53:26;;;;;;;0.77;0.55;;;12.20;87.90;;;;;;10140667;28;20035;-60
2021/05/18 02:58:18;;;;;;;1.17;0.88;;;12.20;88.00;;;;;;10139529;28;20040;-54
2021/05/18 03:03:09;;;;;;;2.03;1.48;;;12.10;88.30;;;;;;10133513;28;20060;-56
2021/05/18 03:08:00;;;;;;;0.98;0.80;;;12.10;88.60;;;;;;10124380;28;20042;-55
2021/05/18 03:12:51;;;;;;;1.23;0.60;;;12.10;88.60;;;;;;10128477;28;20863;-54
2021/05/18 03:17:42;;;;;;;2.10;0.68;;;12.10;88.50;;;;;;10139650;28;20425;-54
2021/05/18 03:22:32;;;;;;;0.95;0.52;;;12.10;88.70;;;;;;10133403;28;20050;-55
2021/05/18 03:27:25;;;;;;;1.33;0.60;;;12.10;88.60;;;;;;10139560;28;20536;-58
2021/05/18 03:42:26;;;;;;;1.77;0.50;;;12.10;88.70;;;;;;10143573;28;20043;-57
2021/05/18 03:52:27;;;;;;;1.08;0.50;;;12.10;89.20;;;;;;10145020;28;20299;-55
2021/05/18 04:23:21;;;;;;;2.05;0.70;;;12.10;89.30;;;;;;10148990;28;20032;-55
2021/05/18 04:38:56;;;;;;;0.77;0.70;;;12.00;89.30;;;;;;10135762;28;20536;-55
2021/05/18 05:18:54;;;;;;;2.38;0.98;;;12.40;89.90;;;;;;10136331;28;20050;-54
2021/05/18 05:23:45;;;;;;;2.25;0.80;;;12.40;90.00;;;;;;10147176;28;20032;-55
2021/05/18 05:28:35;;;;;;;1.63;0.70;;;12.40;89.60;;;;;;10144489;28;20511;-56
2021/05/18 05:33:26;;;;;;;1.13;0.70;;;12.40;89.70;;;;;;10136464;28;20036;-56
2021/05/18 05:38:19;;;;;;;1.95;0.93;;;12.50;89.50;;;;;;10133512;28;20123;-50
2021/05/18 05:43:10;;;;;;;1.42;0.93;;;12.40;89.50;;;;;;10136252;28;20049;-60
2021/05/18 05:48:00;;;;;;;0.73;0.60;;;12.60;89.50;;;;;;10136606;28;20134;-58
2021/05/18 05:52:51;;;;;;;0.70;0.60;;;12.90;89.30;;;;;;10138091;28;20865;-53
2021/05/18 05:57:42;;;;;;;1.15;0.80;;;13.00;89.00;;;;;;10143150;28;20050;-53
2021/05/18 06:02:33;;;;;;;1.17;0.70;;;13.10;88.90;;;;;;10132348;28;20409;-54
2021/05/18 06:07:23;;;;;;;1.30;0.88;;;13.10;89.00;;;;;;10138763;28;20363;-54
2021/05/18 06:12:35;;;;;;;1.30;0.80;;;13.20;88.80;;;;;;10139429;28;20043;-56
2021/05/18 06:17:54;;;;;;;0.52;0.47;;;13.30;88.70;;;;;;10141064;28;20040;-58
2021/05/18 06:43:10;;;;;;;1.02;0.68;;;13.50;87.30;;;;;;10141053;28;20040;-58
2021/05/18 06:48:02;;;;;;;3.30;1.35;;;13.60;86.90;;;;;;10135930;28;20096;-59
2021/05/18 06:52:53;;;;;;;1.38;0.93;;;13.50;86.80;;;;;;10137667;28;20695;-54
2021/05/18 06:57:48;;;;;;;0.98;0.80;;;13.60;86.40;;;;;;10138351;28;20506;-57
2021/05/18 07:02:43;;;;;;;2.67;0.70;;;13.70;86.20;;;;;;10129385;28;20120;-57
2021/05/18 07:07:34;;;;;;;2.37;0.63;;;13.90;85.20;;;;;;10130768;28;20036;-59
2021/05/18 07:12:25;;;;;;;3.88;0.70;;;14.10;84.50;;;;;;10131194;28;21031;-59
2021/05/18 07:17:16;;;;;;;2.25;0.70;;;14.20;83.90;;;;;;10135035;28;20394;-58
2021/05/18 07:22:07;;;;;;;2.72;0.90;;;14.20;83.50;;;;;;10137911;28;20553;-62
2021/05/18 07:26:59;;;;;;;1.88;0.85;;;14.30;83.10;;;;;;10136668;28;20036;-58
2021/05/18 07:31:50;;;;;;;2.15;0.63;;;14.50;82.50;;;;;;10134030;28;20025;-52
2021/05/18 07:36:41;;;;;;;1.45;1.10;;;14.70;82.10;;;;;;10143423;28;21084;-59
2021/05/18 07:41:33;;;;;;;3.20;0.68;;;14.70;82.00;;;;;;10144345;28;20028;-57
2021/05/18 07:46:24;;;;;;;1.98;0.80;;;14.60;81.50;;;;;;10138591;28;20759;-61
2021/05/18 08:06:50;;;;;;;4.35;1.13;;;14.20;80.30;;;;;;10118307;28;20205;-53
2021/05/18 08:11:41;;;;;;;0.80;0.40;;;14.40;79.20;;;;;;10142019;28;20033;-58
2021/05/18 09:36:24;;;;;;;1.45;0.65;;;14.60;73.20;;;;;;10137710;28;20062;-53
2021/05/18 10:36:38;;;;;;;1.40;0.77;;;15.70;64.90;;;;;;10136983;28;20039;-55
2021/05/18 10:41:37;;;;;;;3.53;1.98;;;15.50;65.10;;;;;;10142871;28;20035;-54
2021/05/18 10:46:32;;;;;;;1.65;0.98;;;15.20;65.50;;;;;;10140426;28;20055;-55
2021/05/18 10:51:33;;;;;;;1.02;0.60;;;15.20;66.00;;;;;;10134287;28;20035;-53
2021/05/18 10:56:24;;;;;;;2.30;0.70;;;15.70;66.10;;;;;;10132188;28;20059;-55
2021/05/18 11:01:14;;;;;;;1.08;0.52;;;16.00;65.40;;;;;;10141320;28;20564;-57
2021/05/18 11:06:08;;;;;;;1.30;0.60;;;15.80;65.00;;;;;;10138487;28;20512;-50
2021/05/18 11:10:59;;;;;;;2.85;0.60;;;15.60;64.30;;;;;;10137420;28;20094;-54
2021/05/18 11:15:50;;;;;;;1.98;0.85;;;15.70;62.70;;;;;;10138096;28;20055;-56
2021/05/18 11:25:32;;;;;;;1.60;0.52;;;16.30;60.60;;;;;;10132908;28;20136;-55
2021/05/18 11:30:27;;;;;;;0.88;0.63;;;16.50;59.80;;;;;;10140101;28;21100;-54
2021/05/18 11:35:17;;;;;;;1.60;0.50;;;16.70;57.80;;;;;;10133484;28;20062;-56
2021/05/18 11:40:13;;;;;;;2.47;0.70;;;17.00;57.90;;;;;;10128882;28;20020;-56
2021/05/18 11:45:10;;;;;;;2.00;0.60;;;17.50;57.10;;;;;;10132981;28;20045;-58
2021/05/18 11:50:02;;;;;;;2.75;0.70;;;17.80;56.60;;;;;;10139494;28;20032;-57
2021/05/18 11:54:53;;;;;;;0.47;0.40;;;17.90;56.40;;;;;;10130037;28;20082;-59
2021/05/18 11:59:44;;;;;;;0.82;0.30;;;17.40;56.50;;;;;;10141123;28;20043;-57
2021/05/18 12:04:40;;;;;;;2.08;0.30;;;16.80;56.00;;;;;;10131461;28;20119;-57
2021/05/18 12:09:33;;;;;;;6.68;0.90;;;16.70;56.20;;;;;;10130731;28;20115;-59
2021/05/18 12:14:24;;;;;;;0.52;0.40;;;16.50;56.20;;;;;;10133286;28;20198;-58
2021/05/18 12:19:16;;;;;;;2.45;0.60;;;16.50;57.00;;;;;;10139504;28;20040;-61
2021/05/18 12:24:18;;;;;;;1.00;0.52;;;16.40;57.30;;;;;;10139179;28;20595;-53
2021/05/18 12:29:10;;;;;;;1.77;0.68;;;17.00;56.20;;;;;;10141141;28;20047;-54
2021/05/18 12:34:02;;;;;;;0.60;0.40;;;17.30;56.40;;;;;;10139855;28;20121;-57
2021/05/18 12:39:12;;;;;;;3.22;0.73;;;17.80;56.40;;;;;;10133428;28;20074;-55
2021/05/18 12:44:06;;;;;;;1.48;0.60;;;17.90;55.20;;;;;;10141708;28;20105;-58
2021/05/18 12:48:57;;;;;;;3.38;0.77;;;18.10;55.30;;;;;;10141322;28;20416;-59
2021/05/18 12:53:48;;;;;;;1.52;0.73;;;17.50;56.10;;;;;;10138550;28;20439;-59
2021/05/18 12:58:39;;;;;;;0.85;0.45;;;17.30;56.00;;;;;;10137991;28;20055;-56
2021/05/18 13:03:30;;;;;;;0.90;0.38;;;17.10;55.80;;;;;;10134257;28;20882;-59
2021/05/18 13:08:21;;;;;;;3.70;0.82;;;17.10;55.50;;;;;;10138933;28;20040;-56
2021/05/18 13:13:11;;;;;;;1.10;0.30;;;16.80;55.90;;;;;;10140067;28;20036;-54
2021/05/18 13:18:05;;;;;;;2.15;0.77;;;17.50;55.90;;;;;;10136537;28;20016;-58
2021/05/18 13:22:59;;;;;;;0.28;0.28;;;17.90;54.70;;;;;;10144055;28;20100;-55
2021/05/18 13:28:02;;;;;;;1.00;0.40;;;17.70;56.20;;;;;;10141409;28;20152;-55
2021/05/18 13:32:54;;;;;;;0.95;0.52;;;18.20;52.90;;;;;;10130259;28;20032;-55
2021/05/18 13:37:45;;;;;;;1.33;0.50;;;22.10;49.60;;;;;;10138606;28;20032;-56
2021/05/18 13:42:35;;;;;;;2.13;0.47;;;23.70;47.10;;;;;;10134395;28;20027;-57
2021/05/18 13:47:26;;;;;;;1.52;0.68;;;24.80;44.60;;;;;;10138512;28;20372;-58
2021/05/18 13:52:17;;;;;;;1.90;0.70;;;24.10;44.40;;;;;;10141412;28;20119;-58
2021/05/18 13:57:08;;;;;;;3.90;0.70;;;22.40;46.30;;;;;;10118680;28;20043;-60
2021/05/18 14:01:59;;;;;;;4.38;0.70;;;21.90;45.00;;;;;;10141479;28;20046;-55
2021/05/18 14:12:26;;;;;;;1.80;0.60;;;21.60;43.70;;;;;;10137877;28;20108;-55
2021/05/18 14:17:17;;;;;;;2.00;0.63;;;18.90;48.30;;;;;;10131158;28;20995;-57
2021/05/18 14:22:08;;;;;;;2.20;0.90;;;17.60;49.80;;;;;;10131399;28;20544;-57
2021/05/18 14:26:58;;;;;;;0.82;0.40;;;13.90;53.70;;;;;;10134521;28;20253;-55
2021/05/18 14:31:50;;;;;;;2.08;1.05;;;12.30;60.90;;;;;;10134697;28;20111;-54
2021/05/18 14:36:41;;;;;;;2.58;0.60;;;14.90;61.70;;;;;;10136601;28;20035;-54
2021/05/18 14:56:47;;;;;;;;;;;18.60;58.10;;;;;;10140734;28;20354;-54
2021/05/18 15:01:38;;;;;;;1.17;0.90;;;17.30;61.10;;;;;;10126097;28;19923;-57
2021/05/18 15:06:31;;;;;;;1.13;0.77;;;16.70;62.20;;;;;;10126512;28;20101;-55
2021/05/18 15:11:22;;;;;;;2.13;0.77;;;16.20;63.40;;;;;;10132339;28;20106;-55
2021/05/18 15:16:13;;;;;;;0.95;0.70;;;16.00;64.20;;;;;;10136164;28;20028;-59
2021/05/18 15:21:04;;;;;;;2.22;0.90;;;16.00;64.30;;;;;;10131002;28;20430;-56
2021/05/18 15:25:56;;;;;;;2.70;0.90;;;16.00;64.70;;;;;;10132304;28;20024;-58
2021/05/18 15:30:47;;;;;;;2.15;1.27;;;16.10;65.00;;;;;;10135118;28;20437;-62
2021/05/18 15:35:38;;;;;;;1.10;0.52;;;16.20;65.40;;;;;;10128595;28;20034;-58
2021/05/18 15:40:28;;;;;;;2.13;1.17;;;16.00;65.90;;;;;;10142009;28;20034;-58
2021/05/18 15:45:19;;;;;;;2.10;1.13;;;15.80;66.30;;;;;;10122070;28;20055;-56
2021/05/18 15:50:12;;;;;;;1.88;0.80;;;15.90;66.50;;;;;;10123897;28;20895;-57
2021/05/18 15:55:04;;;;;;;1.90;0.82;;;15.80;66.90;;;;;;10146994;28;20062;-53
2021/05/18 15:59:55;;;;;;;2.05;1.00;;;15.80;67.20;;;;;;10153691;28;20823;-58
2021/05/18 16:04:46;;;;;;;1.05;0.82;;;15.80;67.50;;;;;;10146954;28;20506;-60
2021/05/18 16:09:37;;;;;;;1.15;0.73;;;16.10;67.10;;;;;;10145888;28;20134;-60
2021/05/18 16:14:28;;;;;;;2.40;1.75;;;16.20;66.60;;;;;;10144316;28;20040;-59
2021/05/18 16:19:19;;;;;;;4.35;0.80;;;16.80;65.60;;;;;;10143334;28;20024;-56
2021/05/18 16:24:10;;;;;;;2.70;0.60;;;16.50;65.90;;;;;;10145926;28;20032;-56
2021/05/18 16:29:02;;;;;;;2.05;0.70;;;16.00;66.50;;;;;;10127139;28;20047;-55
2021/05/18 16:33:54;;;;;;;1.55;0.60;;;16.50;65.40;;;;;;10131204;28;20027;-58
2021/05/18 16:38:45;;;;;;;1.00;0.60;;;16.80;64.40;;;;;;10144781;28;20032;-57
2021/05/18 16:43:36;;;;;;;1.10;0.50;;;16.30;65.10;;;;;;10134644;28;20052;-60
2021/05/18 16:48:28;;;;;;;0.63;0.55;;;16.00;65.30;;;;;;10135389;28;20078;-56
2021/05/18 16:53:18;;;;;;;2.30;0.68;;;15.70;65.60;;;;;;10148506;28;20032;-54
2021/05/18 16:58:09;;;;;;;1.00;0.68;;;15.60;65.50;;;;;;10143178;28;20039;-62
2021/05/18 17:03:01;;;;;;;0.95;0.57;;;17.00;62.70;;;;;;10137370;28;20032;-58
2021/05/18 17:07:55;;;;;;;1.48;0.70;;;18.10;59.30;;;;;;10133049;28;20062;-56
2021/05/18 17:12:46;;;;;;;0.75;0.50;;;17.40;60.00;;;;;;10135234;28;20402;-59
2021/05/18 17:17:37;;;;;;;0.85;0.50;;;17.30;60.50;;;;;;10140448;28;20039;-59
2021/05/18 17:22:28;;;;;;;1.08;0.55;;;16.90;61.00;;;;;;10143419;28;20563;-59
2021/05/18 17:27:20;;;;;;;1.85;0.75;;;16.50;61.70;;;;;;10127320;28;20044;-57
2021/05/18 17:32:11;;;;;;;1.35;1.10;;;16.00;62.20;;;;;;10137158;28;20055;-56
2021/05/18 17:37:02;;;;;;;1.80;0.50;;;15.90;62.30;;;;;;10133216;28;20030;-56
2021/05/18 17:41:52;;;;;;;0.75;0.50;;;15.70;62.30;;;;;;10142504;28;20051;-58
2021/05/18 17:46:43;;;;;;;1.45;0.80;;;15.70;62.40;;;;;;10147170;28;20190;-61
2021/05/18 17:51:35;;;;;;;1.40;0.43;;;16.00;61.80;;;;;;10134095;28;20138;-55
2021/05/18 17:56:26;;;;;;;1.63;0.50;;;15.90;61.70;;;;;;10135879;28;20024;-59
2021/05/18 18:01:17;;;;;;;2.15;0.63;;;15.70;62.20;;;;;;10133280;28;20036;-55
2021/05/18 18:06:08;;;;;;;1.95;0.93;;;15.50;62.40;;;;;;10136809;28;20077;-57
2021/05/18 18:10:58;;;;;;;1.42;0.60;;;15.40;62.70;;;;;;10140312;28;20301;-60
2021/05/18 18:15:49;;;;;;;0.88;0.60;;;15.40;62.80;;;;;;10134412;28;20032;-61
2021/05/18 18:20:40;;;;;;;1.20;0.65;;;15.40;62.40;;;;;;10136997;28;20111;-57
2021/05/18 18:25:31;;;;;;;1.60;0.85;;;15.30;62.70;;;;;;10134784;28;20077;-59
2021/05/18 18:30:23;;;;;;;1.33;0.77;;;15.20;62.90;;;;;;10132911;28;20062;-60
2021/05/18 18:35:14;;;;;;;1.33;0.75;;;15.10;63.10;;;;;;10140822;28;20077;-62
2021/05/18 18:40:07;;;;;;;1.17;0.57;;;15.00;63.20;;;;;;10140338;28;20063;-55
2021/05/18 18:44:58;;;;;;;3.25;0.98;;;14.80;63.30;;;;;;10142161;28;20579;-64
2021/05/18 18:49:50;;;;;;;0.73;0.57;;;14.70;63.50;;;;;;10139701;28;20044;-62
2021/05/18 18:54:40;;;;;;;0.75;0.50;;;14.70;63.30;;;;;;10138024;28;20103;-64
2021/05/18 18:59:31;;;;;;;1.08;0.60;;;14.60;63.40;;;;;;10136563;28;20036;-62
2021/05/18 19:04:28;;;;;;;0.98;0.50;;;14.50;63.70;;;;;;10133635;28;20039;-63
2021/05/18 19:14:09;;;;;;;1.00;0.73;;;14.30;63.80;;;;;;10137299;28;20241;-62
2021/05/18 19:19:00;;;;;;;1.02;0.63;;;14.20;63.70;;;;;;10136058;28;20817;-63
2021/05/18 19:23:51;;;;;;;2.78;0.70;;;14.20;63.70;;;;;;10136539;28;20048;-64
2021/05/18 19:28:43;;;;;;;1.15;0.77;;;14.30;63.70;;;;;;10139602;28;20067;-61
2021/05/18 19:33:34;;;;;;;1.10;0.70;;;14.20;63.70;;;;;;10137273;28;20526;-61
2021/05/18 19:48:30;;;;;;;1.13;0.80;;;14.20;63.60;;;;;;10140187;28;20882;-62
2021/05/18 19:53:25;;;;;;;1.98;0.82;;;14.20;63.60;;;;;;10139132;28;20028;-65
2021/05/18 19:58:36;;;;;;;1.30;0.87;;;14.00;63.50;;;;;;10136950;28;20435;-61
2021/05/18 20:09:16;;;;;;;1.48;1.20;;;13.90;63.60;;;;;;10140379;28;21304;-62
2021/05/18 20:19:27;;;;;;;1.08;0.57;;;13.80;63.60;;;;;;10140969;28;20432;-63
2021/05/18 20:24:18;;;;;;;1.92;0.80;;;13.80;63.50;;;;;;10136496;28;20115;-63
2021/05/18 20:29:09;;;;;;;1.27;0.73;;;13.80;63.60;;;;;;10145414;28;20044;-62
2021/05/18 20:34:54;;;;;;;0.65;0.50;;;13.70;64.00;;;;;;10136068;28;20085;-62
2021/05/18 20:44:05;;;;;;;2.25;0.93;;;13.70;64.30;;;;;;10142961;28;20097;-60
2021/05/18 20:48:57;;;;;;;1.75;0.82;;;13.70;64.80;;;;;;10139874;28;20398;-64
2021/05/18 20:53:48;;;;;;;3.85;1.15;;;13.80;64.80;;;;;;10146835;28;20151;-60
2021/05/18 20:58:39;;;;;;;1.83;1.17;;;13.60;65.40;;;;;;10143501;28;20131;-64
2021/05/18 21:03:30;;;;;;;2.10;0.80;;;13.40;66.10;;;;;;10134942;28;20378;-63
2021/05/18 21:15:46;;;;;;;1.50;0.77;;;13.20;67.10;;;;;;10144512;28;20433;-63
2021/05/18 21:18:32;;;;;;;2.72;1.27;;;13.30;67.10;;;;;;10137157;28;20032;-64
2021/05/18 21:23:24;;;;;;;1.63;1.50;;;13.20;67.60;;;;;;10135203;28;20055;-64
2021/05/18 21:28:15;;;;;;;2.50;1.08;;;13.20;67.80;;;;;;10144209;28;20148;-62
2021/05/18 21:33:06;;;;;;;2.83;1.40;;;13.20;68.20;;;;;;10143464;28;20032;-63
2021/05/18 21:37:57;;;;;;;2.70;1.00;;;13.20;68.40;;;;;;10138257;28;20475;-60
2021/05/18 21:42:51;;;;;;;2.33;0.88;;;13.10;68.70;;;;;;10143124;28;20108;-64
2021/05/18 21:47:43;;;;;;;1.63;1.02;;;13.00;69.30;;;;;;10138057;28;20289;-60
2021/05/18 21:52:34;;;;;;;2.00;1.13;;;13.00;69.40;;;;;;10143083;28;20725;-61
2021/05/18 21:57:25;;;;;;;1.77;1.00;;;13.10;69.50;;;;;;10136219;28;20508;-64
2021/05/18 22:02:16;;;;;;;2.65;1.23;;;13.10;69.70;;;;;;10143454;28;20614;-64
2021/05/18 22:07:08;;;;;;;2.72;1.15;;;13.00;69.80;;;;;;10133296;28;20054;-65
2021/05/18 22:23:00;;;;;;;2.65;0.77;;;13.00;70.50;;;;;;10133820;28;21279;-62
2021/05/18 22:27:13;;;;;;;2.97;0.90;;;12.90;71.00;;;;;;10130935;28;20078;-62
2021/05/18 22:32:05;;;;;;;3.50;1.23;;;12.80;71.00;;;;;;10142323;28;20088;-63
2021/05/18 22:36:56;;;;;;;2.50;1.17;;;12.80;71.30;;;;;;10133479;28;20076;-64
2021/05/18 22:41:47;;;;;;;1.70;0.90;;;12.80;71.50;;;;;;10143365;28;20064;-62
2021/05/18 22:46:38;;;;;;;1.65;0.80;;;12.70;71.60;;;;;;10138192;28;20531;-65
2021/05/18 22:51:29;;;;;;;2.17;0.80;;;12.70;72.20;;;;;;10128292;28;20490;-62
2021/05/18 22:56:20;;;;;;;1.33;0.77;;;12.70;72.00;;;;;;10142218;28;20040;-61
2021/05/18 23:01:10;;;;;;;1.20;0.80;;;12.70;72.00;;;;;;10143422;28;20541;-61
2021/05/18 23:06:01;;;;;;;3.03;1.10;;;12.60;72.90;;;;;;10140123;28;20134;-62
2021/05/18 23:10:52;;;;;;;1.77;1.00;;;12.60;72.60;;;;;;10146252;28;20069;-64
2021/05/18 23:15:45;;;;;;;2.15;0.80;;;12.50;72.70;;;;;;10141099;28;20031;-64
2021/05/18 23:20:35;;;;;;;1.42;0.70;;;12.40;72.80;;;;;;10133713;28;20096;-66
2021/05/18 23:25:26;;;;;;;3.25;1.00;;;12.30;73.20;;;;;;10148406;28;20100;-62
2021/05/18 23:30:18;;;;;;;1.00;0.77;;;12.20;73.30;;;;;;10129162;28;20047;-65
2021/05/18 23:35:10;;;;;;;1.45;0.95;;;12.10;73.80;;;;;;10138894;28;20138;-66
2021/05/18 23:40:03;;;;;;;1.98;0.80;;;12.00;74.10;;;;;;10140665;28;20027;-65
2021/05/18 23:44:53;;;;;;;1.33;1.00;;;12.00;74.10;;;;;;10126159;28;20044;-63
2021/05/18 23:49:44;;;;;;;3.85;1.08;;;11.90;74.10;;;;;;10128098;28;20751;-65
2021/05/18 23:54:35;;;;;;;1.52;0.90;;;11.90;74.30;;;;;;10134839;28;20023;-62
2021/05/18 23:59:26;;;;;;;3.10;1.10;;;11.80;74.60;;;;;;10135099;28;20062;-62
